createdAt,value
2023-03-21T00:00:15.955Z,7.90
2023-03-21T00:02:42.236Z,7.90
2023-03-21T00:05:15.556Z,7.90
2023-03-21T00:07:42.269Z,7.90
2023-03-21T00:10:16.509Z,7.90
2023-03-21T00:12:43.074Z,7.90
2023-03-21T00:15:10.779Z,7.90
2023-03-21T00:17:39.001Z,7.90
2023-03-21T00:20:14.462Z,7.90
2023-03-21T00:22:41.278Z,8.00
2023-03-21T00:25:09.807Z,8.00
2023-03-21T00:27:53.246Z,8.00
2023-03-21T00:30:27.547Z,7.90
2023-03-21T00:32:56.688Z,7.90
2023-03-21T00:35:53.526Z,7.90
2023-03-21T00:38:24.291Z,7.90
2023-03-21T00:40:50.497Z,7.80
2023-03-21T00:43:22.773Z,7.80
2023-03-21T00:45:50.085Z,7.80
2023-03-21T00:48:16.487Z,7.80
2023-03-21T00:50:45.550Z,7.80
2023-03-21T00:53:12.035Z,7.80
2023-03-21T00:55:38.477Z,7.70
2023-03-21T00:58:06.063Z,7.60
2023-03-21T01:00:33.414Z,7.60
2023-03-21T01:03:17.713Z,7.50
2023-03-21T01:06:04.649Z,7.60
2023-03-21T01:08:50.438Z,7.70
2023-03-21T01:11:19.313Z,7.70
2023-03-21T01:13:53.715Z,7.70
2023-03-21T01:16:24.675Z,7.80
2023-03-21T01:18:50.945Z,7.90
2023-03-21T01:21:18.206Z,8.00
2023-03-21T01:23:44.770Z,8.10
2023-03-21T01:26:11.392Z,8.20
2023-03-21T01:28:38.013Z,8.30
2023-03-21T01:31:04.775Z,8.30
2023-03-21T01:33:31.905Z,8.40
2023-03-21T01:36:11.705Z,8.40
2023-03-21T01:38:40.809Z,8.40
2023-03-21T01:41:18.741Z,8.40
2023-03-21T01:43:45.673Z,8.30
2023-03-21T01:47:07.652Z,8.30
2023-03-21T01:49:47.263Z,8.30
2023-03-21T01:52:26.479Z,9.90
2023-03-21T01:54:56.218Z,8.30
2023-03-21T01:57:41.033Z,8.30
2023-03-21T02:00:14.709Z,8.20
2023-03-21T02:02:56.192Z,8.20
2023-03-21T02:06:00.164Z,8.20
2023-03-21T02:08:38.416Z,8.20
2023-03-21T02:11:06.370Z,8.10
2023-03-21T02:13:32.883Z,8.10
2023-03-21T02:19:39.342Z,8.00
2023-03-21T02:22:34.765Z,8.00
2023-03-21T02:25:28.553Z,7.90
2023-03-21T02:30:03.860Z,7.80
2023-03-21T02:36:14.011Z,7.80
2023-03-21T02:39:11.549Z,7.60
2023-03-21T02:43:27.135Z,7.70
2023-03-21T02:45:57.389Z,7.70
2023-03-21T02:48:49.765Z,7.70
2023-03-21T02:51:17.689Z,7.70
2023-03-21T02:53:51.708Z,7.70
2023-03-21T02:56:22.525Z,7.70
2023-03-21T02:58:48.724Z,7.80
2023-03-21T03:01:14.969Z,7.80
2023-03-21T03:03:41.963Z,7.80
2023-03-21T03:06:36.421Z,7.70
2023-03-21T03:10:30.860Z,7.80
2023-03-21T03:19:30.054Z,7.80
2023-03-21T03:22:06.186Z,7.80
2023-03-21T03:25:27.114Z,7.80
2023-03-21T03:28:02.553Z,7.70
2023-03-21T03:30:39.053Z,7.70
2023-03-21T03:33:07.869Z,7.70
2023-03-21T03:35:34.168Z,7.60
2023-03-21T03:38:01.312Z,7.60
2023-03-21T03:40:40.474Z,7.60
2023-03-21T03:43:14.191Z,7.60
2023-03-21T03:45:49.628Z,7.60
2023-03-21T03:48:24.614Z,7.70
2023-03-21T03:51:02.157Z,7.60
2023-03-21T03:54:16.907Z,7.70
2023-03-21T03:56:43.381Z,7.60
2023-03-21T03:59:09.504Z,7.70
2023-03-21T04:01:35.771Z,7.70
2023-03-21T04:04:12.540Z,7.70
2023-03-21T04:06:39.673Z,7.70
2023-03-21T04:09:18.725Z,7.70
2023-03-21T04:11:46.079Z,7.70
2023-03-21T04:14:12.780Z,7.70
2023-03-21T04:16:38.993Z,7.70
2023-03-21T04:19:05.190Z,7.70
2023-03-21T04:21:31.456Z,7.70
2023-03-21T04:23:57.852Z,7.70
2023-03-21T04:26:24.321Z,7.70
2023-03-21T04:28:50.552Z,7.70
2023-03-21T04:31:25.476Z,7.80
2023-03-21T04:33:52.580Z,7.70
2023-03-21T04:36:26.848Z,7.70
2023-03-21T04:38:54.189Z,7.70
2023-03-21T04:41:20.430Z,7.70
2023-03-21T04:43:46.832Z,7.70
2023-03-21T04:46:13.132Z,7.70
2023-03-21T04:48:39.273Z,7.70
2023-03-21T04:51:06.025Z,7.80
2023-03-21T04:53:32.280Z,7.70
2023-03-21T04:55:58.661Z,7.70
2023-03-21T04:58:24.940Z,7.80
2023-03-21T05:00:52.301Z,7.70
2023-03-21T05:03:20.881Z,7.70
2023-03-21T05:05:47.205Z,7.70
2023-03-21T05:08:13.541Z,7.80
2023-03-21T05:10:41.073Z,7.70
2023-03-21T05:13:07.316Z,7.70
2023-03-21T05:15:34.549Z,7.80
2023-03-21T05:18:10.387Z,7.80
2023-03-21T05:20:42.698Z,7.80
2023-03-21T05:23:11.980Z,7.80
2023-03-21T05:25:38.810Z,7.80
2023-03-21T05:28:05.787Z,7.80
2023-03-21T05:30:32.405Z,7.80
2023-03-21T05:32:59.229Z,7.80
2023-03-21T05:35:26.883Z,7.80
2023-03-21T05:37:53.218Z,7.90
2023-03-21T05:40:19.774Z,7.90
2023-03-21T05:42:46.624Z,7.90
2023-03-21T05:45:13.325Z,7.90
2023-03-21T05:47:39.596Z,9.80
2023-03-21T05:50:07.298Z,7.90
2023-03-21T05:52:33.582Z,7.90
2023-03-21T05:55:00.398Z,8.00
2023-03-21T05:57:28.219Z,8.00
2023-03-21T05:59:54.532Z,8.10
2023-03-21T06:02:20.843Z,8.20
2023-03-21T06:04:47.190Z,8.20
2023-03-21T06:07:13.401Z,8.20
2023-03-21T06:09:39.529Z,8.20
2023-03-21T06:12:06.569Z,8.20
2023-03-21T06:14:32.758Z,8.30
2023-03-21T06:16:58.943Z,8.30
2023-03-21T06:19:25.842Z,8.40
2023-03-21T06:21:52.046Z,8.40
2023-03-21T06:24:18.213Z,8.40
2023-03-21T06:26:45.736Z,8.40
2023-03-21T06:29:11.889Z,8.40
2023-03-21T06:31:38.190Z,8.40
2023-03-21T06:34:04.528Z,8.50
2023-03-21T06:36:30.996Z,8.50
2023-03-21T06:38:57.192Z,8.50
2023-03-21T06:41:23.361Z,8.60
2023-03-21T06:43:49.483Z,8.60
2023-03-21T06:46:15.666Z,8.60
2023-03-21T06:48:44.081Z,8.70
2023-03-21T06:51:12.154Z,6.70
2023-03-21T06:53:39.629Z,8.80
2023-03-21T06:56:07.520Z,8.80
2023-03-21T06:58:33.803Z,8.90
2023-03-21T07:01:01.120Z,8.90
2023-03-21T07:03:27.394Z,11.30
2023-03-21T07:05:53.862Z,8.90
2023-03-21T07:08:20.094Z,9.00
2023-03-21T07:10:46.991Z,8.90
2023-03-21T07:13:13.507Z,8.90
2023-03-21T07:15:40.782Z,9.00
2023-03-21T07:18:08.165Z,9.00
2023-03-21T07:20:35.469Z,9.10
2023-03-21T07:23:01.823Z,9.10
2023-03-21T07:25:28.316Z,9.30
2023-03-21T07:27:58.503Z,9.30
2023-03-21T07:30:25.185Z,9.30
2023-03-21T07:32:53.287Z,9.40
2023-03-21T07:35:19.843Z,9.50
2023-03-21T07:37:47.078Z,11.70
2023-03-21T07:40:14.846Z,9.70
2023-03-21T07:42:41.343Z,9.80
2023-03-21T07:45:09.123Z,9.80
2023-03-21T07:47:35.478Z,9.80
2023-03-21T07:50:05.738Z,9.90
2023-03-21T07:52:32.218Z,9.90
2023-03-21T07:54:58.830Z,10.00
2023-03-21T07:57:25.372Z,10.00
2023-03-21T07:59:51.593Z,10.20
2023-03-21T08:02:18.135Z,10.40
2023-03-21T08:04:44.687Z,10.40
2023-03-21T08:07:11.219Z,10.40
2023-03-21T08:09:37.856Z,10.50
2023-03-21T08:12:05.167Z,10.70
2023-03-21T08:14:31.603Z,10.90
2023-03-21T08:16:58.749Z,11.00
2023-03-21T08:19:26.355Z,11.10
2023-03-21T08:21:53.665Z,10.80
2023-03-21T08:24:19.869Z,10.30
2023-03-21T08:26:46.369Z,10.00
2023-03-21T08:29:13.198Z,9.60
2023-03-21T08:31:40.760Z,9.80
2023-03-21T08:34:06.966Z,10.00
2023-03-21T08:36:33.417Z,10.40
2023-03-21T08:39:04.736Z,10.60
2023-03-21T08:41:32.200Z,10.70
2023-03-21T08:43:58.812Z,10.80
2023-03-21T08:46:25.679Z,10.60
2023-03-21T08:48:52.489Z,10.70
2023-03-21T08:51:18.674Z,10.80
2023-03-21T08:53:44.806Z,10.90
2023-03-21T08:56:11.074Z,11.00
2023-03-21T08:58:38.167Z,11.00
2023-03-21T09:01:06.853Z,10.90
2023-03-21T09:03:33.492Z,10.60
2023-03-21T09:06:00.103Z,10.60
2023-03-21T09:08:27.275Z,10.50
2023-03-21T09:10:55.122Z,10.50
2023-03-21T09:13:21.774Z,12.60
2023-03-21T09:15:47.968Z,10.80
2023-03-21T09:18:15.575Z,10.90
2023-03-21T09:20:42.617Z,11.20
2023-03-21T09:23:12.633Z,11.50
2023-03-21T09:25:40.254Z,11.90
2023-03-21T09:28:07.047Z,12.30
2023-03-21T09:30:34.217Z,12.70
2023-03-21T09:33:01.363Z,13.50
2023-03-21T09:35:28.564Z,13.90
2023-03-21T09:37:56.859Z,14.10
2023-03-21T09:40:40.356Z,13.80
2023-03-21T09:43:31.329Z,14.10
2023-03-21T09:46:51.037Z,14.40
2023-03-21T09:49:32.408Z,14.60
2023-03-21T09:51:59.207Z,14.90
2023-03-21T09:54:27.493Z,14.90
2023-03-21T09:56:59.797Z,14.80
2023-03-21T09:59:37.441Z,14.60
2023-03-21T10:02:13.968Z,14.20
2023-03-21T10:04:41.313Z,13.80
2023-03-21T10:07:11.147Z,13.80
2023-03-21T10:09:40.566Z,13.70
2023-03-21T10:12:14.510Z,13.80
2023-03-21T10:14:43.365Z,12.90
2023-03-21T10:17:25.992Z,13.30
2023-03-21T10:20:36.304Z,13.60
2023-03-21T10:23:06.990Z,13.60
2023-03-21T10:25:39.995Z,13.70
2023-03-21T10:28:07.098Z,13.60
2023-03-21T10:30:55.550Z,13.60
2023-03-21T10:33:27.123Z,13.30
2023-03-21T10:35:56.420Z,13.40
2023-03-21T10:38:23.972Z,13.40
2023-03-21T10:40:50.294Z,13.40
2023-03-21T10:44:17.345Z,12.20
2023-03-21T10:46:58.407Z,12.90
2023-03-21T10:49:27.999Z,13.70
2023-03-21T10:51:56.351Z,13.60
2023-03-21T10:54:26.110Z,13.60
2023-03-21T10:57:07.598Z,13.90
2023-03-21T10:59:39.829Z,13.80
2023-03-21T11:02:06.668Z,14.10
2023-03-21T11:04:34.184Z,14.00
2023-03-21T11:07:06.831Z,13.30
2023-03-21T11:09:49.169Z,13.40
2023-03-21T11:12:18.238Z,13.50
2023-03-21T11:14:48.263Z,13.30
2023-03-21T11:17:21.973Z,14.10
2023-03-21T11:20:08.468Z,12.90
2023-03-21T11:22:40.834Z,12.90
2023-03-21T11:25:08.944Z,12.80
2023-03-21T11:27:35.256Z,12.80
2023-03-21T11:30:02.241Z,12.70
2023-03-21T11:32:36.210Z,12.20
2023-03-21T11:35:12.323Z,13.40
2023-03-21T11:37:42.066Z,12.30
2023-03-21T11:40:20.001Z,14.30
2023-03-21T11:42:49.070Z,12.00
2023-03-21T11:45:23.271Z,12.00
2023-03-21T11:47:50.728Z,12.00
2023-03-21T11:50:44.286Z,12.10
2023-03-21T11:53:37.594Z,12.00
2023-03-21T11:56:54.680Z,11.90
2023-03-21T11:59:45.689Z,11.80
2023-03-21T12:03:47.171Z,11.90
2023-03-21T12:06:25.242Z,11.90
2023-03-21T12:09:03.535Z,13.60
2023-03-21T12:12:00.612Z,12.00
2023-03-21T12:16:18.217Z,12.30
2023-03-21T12:22:35.124Z,12.30
2023-03-21T12:25:10.597Z,12.60
2023-03-21T12:30:48.722Z,12.90
2023-03-21T12:36:40.880Z,13.30
2023-03-21T12:39:52.432Z,12.90
2023-03-21T12:42:47.509Z,13.10
2023-03-21T12:45:22.239Z,13.30
2023-03-21T12:47:56.029Z,13.60
2023-03-21T12:50:33.471Z,13.60
2023-03-21T12:53:05.794Z,13.80
2023-03-21T12:55:33.925Z,13.80
2023-03-21T12:58:18.377Z,14.90
2023-03-21T13:00:49.706Z,13.50
2023-03-21T13:03:44.233Z,13.70
2023-03-21T13:06:14.878Z,13.80
2023-03-21T13:10:50.558Z,13.80
2023-03-21T13:17:28.825Z,13.30
2023-03-21T13:20:29.009Z,13.70
2023-03-21T13:22:55.752Z,13.70
2023-03-21T13:25:23.680Z,13.90
2023-03-21T13:28:03.839Z,13.80
2023-03-21T13:30:31.603Z,13.90
2023-03-21T13:33:11.886Z,13.80
2023-03-21T13:35:41.661Z,14.00
2023-03-21T13:38:27.951Z,14.10
2023-03-21T13:41:00.414Z,14.10
2023-03-21T13:43:44.106Z,14.10
2023-03-21T13:47:48.155Z,14.40
2023-03-21T13:50:28.699Z,14.50
2023-03-21T13:53:29.138Z,14.50
2023-03-21T13:56:10.034Z,14.50
2023-03-21T13:58:58.453Z,14.50
2023-03-21T14:01:43.672Z,14.40
2023-03-21T14:04:21.257Z,14.50
2023-03-21T14:07:36.074Z,13.90
2023-03-21T14:10:29.896Z,13.30
2023-03-21T14:12:56.581Z,13.20
2023-03-21T14:15:25.247Z,13.00
2023-03-21T14:18:06.481Z,12.50
2023-03-21T14:20:43.015Z,12.30
2023-03-21T14:23:14.360Z,12.50
2023-03-21T14:25:47.514Z,12.60
2023-03-21T14:28:24.950Z,12.80
2023-03-21T14:30:56.235Z,12.90
2023-03-21T14:33:26.832Z,12.70
2023-03-21T14:35:58.999Z,12.30
2023-03-21T14:38:27.858Z,12.70
2023-03-21T14:40:55.094Z,12.80
2023-03-21T14:43:22.472Z,12.70
2023-03-21T14:45:52.329Z,12.60
2023-03-21T14:48:19.022Z,12.40
2023-03-21T14:50:52.734Z,12.30
2023-03-21T14:53:30.337Z,12.50
2023-03-21T14:56:18.373Z,12.60
2023-03-21T14:58:46.889Z,12.40
2023-03-21T15:01:26.641Z,12.00
2023-03-21T15:03:52.966Z,12.00
2023-03-21T15:06:19.859Z,11.70
2023-03-21T15:09:06.107Z,11.60
2023-03-21T15:11:37.732Z,11.70
2023-03-21T15:14:07.484Z,11.60
2023-03-21T15:16:34.359Z,11.70
2023-03-21T15:19:03.947Z,11.90
2023-03-21T15:21:36.689Z,12.00
2023-03-21T15:24:16.054Z,11.70
2023-03-21T15:26:46.230Z,11.70
2023-03-21T15:29:13.983Z,11.80
2023-03-21T15:31:40.294Z,11.70
2023-03-21T15:34:06.664Z,11.80
2023-03-21T15:36:36.033Z,11.70
2023-03-21T15:39:05.868Z,11.70
2023-03-21T15:41:32.141Z,11.70
2023-03-21T15:44:17.152Z,11.80
2023-03-21T15:46:48.673Z,13.80
2023-03-21T15:49:26.635Z,11.70
2023-03-21T15:52:15.255Z,11.60
2023-03-21T15:54:56.214Z,11.60
2023-03-21T15:57:33.887Z,11.50
2023-03-21T16:00:23.872Z,11.50
2023-03-21T16:02:57.052Z,11.50
2023-03-21T16:05:31.724Z,11.50
2023-03-21T16:08:22.099Z,11.40
2023-03-21T16:10:49.361Z,11.40
2023-03-21T16:13:17.634Z,11.40
2023-03-21T16:15:46.303Z,11.30
2023-03-21T16:18:17.188Z,11.30
2023-03-21T16:20:45.596Z,11.30
2023-03-21T16:23:15.781Z,11.20
2023-03-21T16:25:46.646Z,11.20
2023-03-21T16:28:15.677Z,11.20
2023-03-21T16:30:42.160Z,11.10
2023-03-21T16:33:11.615Z,11.10
2023-03-21T16:35:38.760Z,11.00
2023-03-21T16:38:05.550Z,11.00
2023-03-21T16:40:37.525Z,10.90
2023-03-21T16:43:04.595Z,10.90
2023-03-21T16:45:30.877Z,10.80
2023-03-21T16:47:57.305Z,10.80
2023-03-21T16:50:36.245Z,10.70
2023-03-21T16:53:03.152Z,10.60
2023-03-21T16:55:30.656Z,10.60
2023-03-21T16:57:57.035Z,10.50
2023-03-21T17:00:25.727Z,10.40
2023-03-21T17:02:54.167Z,10.30
2023-03-21T17:05:22.402Z,10.20
2023-03-21T17:07:49.791Z,10.20
2023-03-21T17:10:21.940Z,10.10
2023-03-21T17:12:49.198Z,10.10
2023-03-21T17:15:15.793Z,10.00
2023-03-21T17:17:43.449Z,10.00
2023-03-21T17:20:30.331Z,9.90
2023-03-21T17:22:57.206Z,9.80
2023-03-21T17:25:24.039Z,9.80
2023-03-21T17:27:52.454Z,9.80
2023-03-21T17:30:23.999Z,9.70
2023-03-21T17:32:51.542Z,9.70
2023-03-21T17:35:18.902Z,9.60
2023-03-21T17:37:50.944Z,9.60
2023-03-21T17:40:20.053Z,9.60
2023-03-21T17:42:46.691Z,9.60
2023-03-21T17:45:12.947Z,9.50
2023-03-21T17:47:39.373Z,9.50
2023-03-21T17:50:13.749Z,9.50
2023-03-21T17:52:40.079Z,9.50
2023-03-21T17:55:07.420Z,9.50
2023-03-21T17:57:33.805Z,9.50
2023-03-21T18:00:01.404Z,9.40
2023-03-21T18:02:27.989Z,9.30
2023-03-21T18:04:54.578Z,9.30
2023-03-21T18:07:42.713Z,9.40
2023-03-21T18:10:31.542Z,9.40
2023-03-21T18:12:58.389Z,9.40
2023-03-21T18:15:30.205Z,9.40
2023-03-21T18:17:58.721Z,9.40
2023-03-21T18:20:49.896Z,9.30
2023-03-21T18:23:18.820Z,9.30
2023-03-21T18:25:46.038Z,9.30
2023-03-21T18:28:13.932Z,9.30
2023-03-21T18:31:07.020Z,9.30
2023-03-21T18:33:36.745Z,9.30
2023-03-21T18:36:07.440Z,9.30
2023-03-21T18:38:35.985Z,9.30
2023-03-21T18:41:03.162Z,9.20
2023-03-21T18:46:26.761Z,9.20
2023-03-21T18:48:55.285Z,9.20
2023-03-21T18:51:22.778Z,9.20
2023-03-21T18:53:49.118Z,9.20
2023-03-21T18:59:13.999Z,9.10
2023-03-21T19:01:41.541Z,9.10
2023-03-21T19:04:29.709Z,9.10
2023-03-21T19:06:57.790Z,9.00
2023-03-21T19:09:29.466Z,9.00
2023-03-21T19:11:58.075Z,9.00
2023-03-21T19:14:25.555Z,8.90
2023-03-21T19:18:03.027Z,8.90
2023-03-21T19:20:33.509Z,8.90
2023-03-21T19:23:00.458Z,8.80
2023-03-21T19:25:27.215Z,8.80
2023-03-21T19:27:54.436Z,8.80
2023-03-21T19:30:22.372Z,8.80
2023-03-21T19:32:54.763Z,8.80
2023-03-21T19:35:21.804Z,8.80
2023-03-21T19:37:49.403Z,8.80
2023-03-21T19:40:17.280Z,8.90
2023-03-21T19:42:44.846Z,8.90
2023-03-21T19:45:11.613Z,8.90
2023-03-21T19:47:43.578Z,8.90
2023-03-21T19:53:08.195Z,8.90
2023-03-21T19:55:36.491Z,8.90
2023-03-21T19:58:03.319Z,8.90
2023-03-21T20:00:29.974Z,8.90
2023-03-21T20:02:58.155Z,8.90
2023-03-21T20:05:25.145Z,8.90
2023-03-21T20:07:57.198Z,9.00
2023-03-21T20:10:26.929Z,9.00
2023-03-21T20:12:54.446Z,9.00
2023-03-21T20:15:21.870Z,9.00
2023-03-21T20:17:49.863Z,8.90
2023-03-21T20:20:17.762Z,8.90
2023-03-21T20:25:42.698Z,8.90
2023-03-21T20:28:24.202Z,8.90
2023-03-21T20:30:53.935Z,8.90
2023-03-21T20:33:21.942Z,8.90
2023-03-21T20:38:47.362Z,8.80
2023-03-21T20:41:14.120Z,8.80
2023-03-21T20:44:29.939Z,8.60
2023-03-21T20:47:06.192Z,8.50
2023-03-21T20:49:33.103Z,8.40
2023-03-21T20:52:51.741Z,8.30
2023-03-21T20:55:23.959Z,8.20
2023-03-21T20:57:51.028Z,8.00
2023-03-21T21:00:21.370Z,7.80
2023-03-21T21:02:48.264Z,7.30
2023-03-21T21:05:28.187Z,7.60
2023-03-21T21:07:55.887Z,7.50
2023-03-21T21:10:22.438Z,7.40
2023-03-21T21:12:48.887Z,7.40
2023-03-21T21:15:16.206Z,7.50
2023-03-21T21:20:39.927Z,7.50
2023-03-21T21:23:07.344Z,7.60
2023-03-21T21:25:36.986Z,7.70
2023-03-21T21:28:08.477Z,7.90
2023-03-21T21:30:38.692Z,7.90
2023-03-21T21:33:05.387Z,8.00
2023-03-21T21:35:32.872Z,8.00
2023-03-21T21:37:59.100Z,8.00
2023-03-21T21:40:25.878Z,8.10
2023-03-21T21:42:52.265Z,8.10
2023-03-21T21:45:19.492Z,8.10
2023-03-21T21:47:48.106Z,8.00
2023-03-21T21:50:15.133Z,8.00
2023-03-21T21:52:51.818Z,8.00
2023-03-21T21:55:19.007Z,8.00
2023-03-21T21:57:49.543Z,8.00
2023-03-21T22:00:19.169Z,8.00
2023-03-21T22:02:46.260Z,8.00
2023-03-21T22:05:12.646Z,8.00
2023-03-21T22:07:38.938Z,7.90
2023-03-21T22:10:05.989Z,7.90
2023-03-21T22:12:32.381Z,7.90
2023-03-21T22:14:58.571Z,7.90
2023-03-21T22:17:25.201Z,8.00
2023-03-21T22:20:04.768Z,8.00
2023-03-21T22:22:32.797Z,7.90
2023-03-21T22:24:58.949Z,7.90
2023-03-21T22:27:25.376Z,7.90
2023-03-21T22:29:51.727Z,7.90
2023-03-21T22:32:18.691Z,7.90
2023-03-21T22:34:45.084Z,7.90
2023-03-21T22:37:11.570Z,7.90
2023-03-21T22:39:37.855Z,8.00
2023-03-21T22:42:04.903Z,8.00
2023-03-21T22:44:34.402Z,8.00
2023-03-21T22:47:05.491Z,8.00
2023-03-21T22:49:32.115Z,8.00
2023-03-21T22:51:59.133Z,8.00
2023-03-21T22:54:25.457Z,8.00
2023-03-21T22:56:51.765Z,8.10
2023-03-21T22:59:18.145Z,8.10
2023-03-21T23:01:45.610Z,8.10
2023-03-21T23:04:12.769Z,8.10
2023-03-21T23:06:39.227Z,8.10
2023-03-21T23:09:05.838Z,8.10
2023-03-21T23:11:32.124Z,8.10
2023-03-21T23:14:07.783Z,8.10
2023-03-21T23:16:37.577Z,8.20
2023-03-21T23:19:04.943Z,8.10
2023-03-21T23:21:34.901Z,8.20
2023-03-21T23:24:01.178Z,8.20
2023-03-21T23:26:27.422Z,8.20
2023-03-21T23:28:54.267Z,8.20
2023-03-21T23:31:22.433Z,8.20
2023-03-21T23:33:49.234Z,8.20
2023-03-21T23:36:16.732Z,8.20
2023-03-21T23:38:43.149Z,8.20
2023-03-21T23:41:13.800Z,8.10
2023-03-21T23:43:42.389Z,8.10
2023-03-21T23:46:08.903Z,8.10
2023-03-21T23:48:35.328Z,8.10
2023-03-21T23:51:01.509Z,8.10
2023-03-21T23:53:28.198Z,8.00
2023-03-21T23:55:57.811Z,8.00
2023-03-21T23:58:26.199Z,8.00
